createdAt,value
2018-11-28T00:01:23.361Z,66.21
2018-11-28T00:03:53.340Z,65.81
2018-11-28T00:06:23.263Z,65.88
2018-11-28T00:08:53.116Z,66.18
2018-11-28T00:11:23.054Z,65.77
2018-11-28T00:13:52.925Z,66.34
2018-11-28T00:16:23.629Z,66.02
2018-11-28T00:18:53.602Z,65.81
2018-11-28T00:21:24.566Z,66.09
2018-11-28T00:23:54.434Z,65.63
2018-11-28T00:26:24.493Z,66.30
2018-11-28T00:28:54.412Z,65.50
2018-11-28T00:31:24.370Z,65.78
2018-11-28T00:33:54.295Z,65.63
2018-11-28T00:36:24.281Z,65.83
2018-11-28T00:38:54.193Z,65.90
2018-11-28T00:41:24.228Z,65.72
2018-11-28T00:43:54.182Z,65.41
2018-11-28T00:46:24.243Z,65.64
2018-11-28T00:48:54.154Z,66.08
2018-11-28T00:51:24.047Z,65.68
2018-11-28T00:53:53.955Z,65.95
2018-11-28T00:56:24.031Z,66.29
2018-11-28T00:58:53.950Z,65.85
2018-11-28T01:01:26.202Z,66.17
2018-11-28T01:03:56.118Z,66.13
2018-11-28T01:06:26.007Z,65.97
2018-11-28T01:08:56.060Z,66.03
2018-11-28T01:11:26.107Z,65.86
2018-11-28T01:13:56.150Z,66.01
2018-11-28T01:16:26.075Z,66.19
2018-11-28T01:18:56.062Z,66.14
2018-11-28T01:21:26.088Z,65.97
2018-11-28T01:23:56.112Z,65.98
2018-11-28T01:26:26.068Z,65.57
2018-11-28T01:28:56.026Z,65.60
2018-11-28T01:31:26.068Z,65.85
2018-11-28T01:33:55.955Z,65.02
2018-11-28T01:36:26.832Z,65.89
2018-11-28T01:38:56.766Z,66.36
2018-11-28T01:41:26.638Z,66.53
2018-11-28T01:43:56.563Z,66.15
2018-11-28T01:46:26.491Z,66.82
2018-11-28T01:48:56.769Z,67.13
2018-11-28T01:51:27.701Z,67.38
2018-11-28T01:53:57.689Z,67.27
2018-11-28T01:56:27.623Z,68.05
2018-11-28T01:58:57.484Z,67.82
2018-11-28T02:01:27.405Z,66.53
2018-11-28T02:03:57.371Z,66.67
2018-11-28T02:06:27.397Z,66.92
2018-11-28T02:08:57.310Z,66.10
2018-11-28T02:11:27.190Z,66.93
2018-11-28T02:13:57.124Z,67.00
2018-11-28T02:16:27.066Z,67.34
2018-11-28T02:18:57.789Z,67.21
2018-11-28T02:21:28.505Z,66.84
2018-11-28T02:23:58.446Z,66.63
2018-11-28T02:26:28.363Z,65.76
2018-11-28T02:28:59.073Z,66.19
2018-11-28T02:31:28.987Z,67.05
2018-11-28T02:33:58.897Z,68.14
2018-11-28T02:36:28.808Z,66.23
2018-11-28T02:38:58.729Z,65.36
2018-11-28T02:41:28.798Z,64.85
2018-11-28T02:43:58.931Z,66.14
2018-11-28T02:46:32.850Z,66.74
2018-11-28T02:49:02.802Z,67.31
2018-11-28T02:51:32.731Z,67.88
2018-11-28T02:54:02.755Z,67.57
2018-11-28T02:56:32.770Z,67.10
2018-11-28T02:59:03.517Z,67.43
2018-11-28T03:01:33.409Z,66.97
2018-11-28T03:04:03.352Z,66.94
2018-11-28T03:06:33.253Z,67.26
2018-11-28T03:09:03.127Z,69.99
2018-11-28T03:11:33.046Z,67.80
2018-11-28T03:14:02.997Z,66.81
2018-11-28T03:16:32.905Z,66.59
2018-11-28T03:19:02.855Z,66.83
2018-11-28T03:21:33.600Z,67.95
2018-11-28T03:24:03.527Z,67.64
2018-11-28T03:26:33.441Z,68.19
2018-11-28T03:29:03.358Z,68.30
2018-11-28T03:31:33.261Z,67.73
2018-11-28T03:34:03.181Z,67.58
2018-11-28T03:36:33.071Z,67.66
2018-11-28T03:39:03.032Z,67.46
2018-11-28T03:41:33.002Z,67.67
2018-11-28T03:44:03.758Z,70.02
2018-11-28T03:46:33.659Z,67.60
2018-11-28T03:49:03.665Z,66.44
2018-11-28T03:51:33.592Z,66.43
2018-11-28T03:54:03.550Z,66.65
2018-11-28T03:56:33.605Z,67.31
2018-11-28T03:59:03.540Z,67.45
2018-11-28T04:01:33.395Z,67.25
2018-11-28T04:04:03.307Z,67.08
2018-11-28T04:06:33.221Z,66.80
2018-11-28T04:09:03.823Z,67.21
2018-11-28T04:11:33.703Z,67.25
2018-11-28T04:14:03.862Z,67.02
2018-11-28T04:16:33.754Z,66.89
2018-11-28T04:19:05.787Z,69.35
2018-11-28T04:21:35.897Z,67.38
2018-11-28T04:24:05.835Z,66.34
2018-11-28T04:26:35.760Z,66.43
2018-11-28T04:29:05.770Z,66.75
2018-11-28T04:31:35.674Z,66.47
2018-11-28T04:34:05.778Z,67.03
2018-11-28T04:36:35.752Z,67.39
2018-11-28T04:39:08.387Z,67.18
2018-11-28T04:41:38.467Z,67.52
2018-11-28T04:44:08.464Z,66.66
2018-11-28T04:46:38.416Z,66.64
2018-11-28T04:49:08.296Z,66.57
2018-11-28T04:51:38.357Z,66.61
2018-11-28T04:54:08.247Z,68.72
2018-11-28T04:56:38.206Z,67.02
2018-11-28T04:59:08.183Z,65.63
2018-11-28T05:01:38.167Z,65.93
2018-11-28T05:04:08.278Z,66.36
2018-11-28T05:07:18.697Z,66.85
2018-11-28T05:09:48.777Z,66.45
2018-11-28T05:12:18.790Z,66.12
2018-11-28T05:14:49.012Z,66.82
2018-11-28T05:17:19.936Z,66.37
2018-11-28T05:19:49.843Z,66.39
2018-11-28T05:22:19.774Z,66.76
2018-11-28T05:24:49.818Z,66.83
2018-11-28T05:27:19.873Z,66.56
2018-11-28T05:29:49.899Z,68.33
2018-11-28T05:32:19.872Z,66.31
2018-11-28T05:34:49.805Z,66.56
2018-11-28T05:37:19.725Z,65.95
2018-11-28T05:39:49.658Z,66.49
2018-11-28T05:42:22.698Z,65.97
2018-11-28T05:44:52.651Z,66.73
2018-11-28T05:47:22.631Z,67.20
2018-11-28T05:49:52.681Z,67.25
2018-11-28T05:52:22.640Z,66.64
2018-11-28T05:54:52.607Z,66.98
2018-11-28T05:57:22.619Z,66.94
2018-11-28T05:59:52.824Z,67.25
2018-11-28T06:02:22.748Z,66.94
2018-11-28T06:04:52.650Z,72.20
2018-11-28T06:07:22.541Z,67.22
2018-11-28T06:09:52.522Z,66.00
2018-11-28T06:12:22.524Z,66.06
2018-11-28T06:14:52.460Z,66.73
2018-11-28T06:17:22.362Z,66.64
2018-11-28T06:19:52.363Z,66.52
2018-11-28T06:22:22.315Z,66.68
2018-11-28T06:24:52.235Z,66.86
2018-11-28T06:27:22.302Z,66.63
2018-11-28T06:29:52.226Z,66.73
2018-11-28T06:32:22.220Z,66.18
2018-11-28T06:34:52.321Z,66.58
2018-11-28T06:37:22.327Z,66.73
2018-11-28T06:39:52.237Z,68.36
2018-11-28T06:42:22.343Z,67.46
2018-11-28T06:44:52.312Z,66.11
2018-11-28T06:47:22.330Z,66.22
2018-11-28T06:49:54.003Z,66.86
2018-11-28T06:52:24.290Z,66.42
2018-11-28T06:54:54.247Z,66.27
2018-11-28T06:57:24.422Z,67.12
2018-11-28T06:59:54.320Z,66.96
2018-11-28T07:02:24.466Z,66.67
2018-11-28T07:04:54.429Z,65.99
2018-11-28T07:07:26.115Z,66.23
2018-11-28T07:09:55.981Z,65.73
2018-11-28T07:12:26.271Z,65.99
2018-11-28T07:14:56.183Z,66.46
2018-11-28T07:17:26.206Z,66.83
2018-11-28T07:19:56.096Z,66.14
2018-11-28T07:22:26.121Z,65.65
2018-11-28T07:24:56.047Z,65.07
2018-11-28T07:27:26.163Z,65.58
2018-11-28T07:29:56.255Z,66.25
2018-11-28T07:32:26.113Z,66.17
2018-11-28T07:34:56.140Z,66.46
2018-11-28T07:37:26.199Z,66.50
2018-11-28T07:39:56.175Z,66.37
2018-11-28T07:42:26.462Z,66.24
2018-11-28T07:44:56.364Z,65.66
2018-11-28T07:47:26.354Z,65.49
2018-11-28T07:49:56.302Z,66.40
2018-11-28T07:52:26.351Z,67.40
2018-11-28T07:54:56.225Z,65.14
2018-11-28T07:57:26.301Z,65.08
2018-11-28T07:59:56.261Z,65.73
2018-11-28T08:02:26.213Z,65.49
2018-11-28T08:04:56.069Z,64.99
2018-11-28T08:07:26.066Z,64.82
2018-11-28T08:09:55.956Z,65.24
2018-11-28T08:12:26.022Z,65.88
2018-11-28T08:14:55.945Z,65.11
2018-11-28T08:17:25.838Z,64.79
2018-11-28T08:19:55.867Z,65.00
2018-11-28T08:22:25.905Z,65.24
2018-11-28T08:24:55.748Z,65.64
2018-11-28T08:27:26.131Z,67.06
2018-11-28T08:29:56.016Z,65.20
2018-11-28T08:32:25.897Z,64.36
2018-11-28T08:34:58.903Z,64.26
2018-11-28T08:37:28.946Z,64.47
2018-11-28T08:39:58.831Z,63.93
2018-11-28T08:42:28.939Z,63.98
2018-11-28T08:44:58.846Z,64.03
2018-11-28T08:47:28.768Z,64.21
2018-11-28T08:49:58.814Z,64.23
2018-11-28T08:52:28.827Z,64.58
2018-11-28T08:54:58.757Z,64.38
2018-11-28T08:57:29.182Z,64.42
2018-11-28T08:59:59.190Z,64.38
2018-11-28T09:02:29.119Z,64.23
2018-11-28T09:04:59.256Z,63.72
2018-11-28T09:07:29.278Z,63.98
2018-11-28T09:09:59.153Z,64.13
2018-11-28T09:12:32.267Z,64.23
2018-11-28T09:15:02.205Z,66.16
2018-11-28T09:17:32.209Z,63.51
2018-11-28T09:20:02.144Z,63.42
2018-11-28T09:22:32.028Z,63.50
2018-11-28T09:25:02.256Z,62.73
2018-11-28T09:27:33.093Z,63.38
2018-11-28T09:30:03.107Z,63.88
2018-11-28T09:32:33.065Z,63.56
2018-11-28T09:35:02.952Z,63.32
2018-11-28T09:37:33.056Z,63.47
2018-11-28T09:40:03.051Z,63.89
2018-11-28T09:42:33.170Z,63.45
2018-11-28T09:45:05.222Z,63.01
2018-11-28T09:47:33.923Z,63.64
2018-11-28T09:50:03.953Z,64.09
2018-11-28T09:52:34.647Z,63.27
2018-11-28T09:55:06.209Z,63.65
2018-11-28T09:57:36.356Z,63.43
2018-11-28T10:00:08.986Z,63.25
2018-11-28T10:02:38.985Z,63.23
2018-11-28T10:05:11.183Z,62.98
2018-11-28T10:07:41.086Z,63.29
2018-11-28T10:10:12.509Z,63.63
2018-11-28T10:12:42.727Z,63.67
2018-11-28T10:15:35.522Z,63.46
2018-11-28T10:18:02.310Z,62.72
2018-11-28T10:20:32.476Z,62.72
2018-11-28T10:23:04.591Z,62.51
2018-11-28T10:25:34.377Z,62.90
2018-11-28T10:28:08.663Z,61.89
2018-11-28T10:30:39.722Z,60.82
2018-11-28T10:33:13.457Z,61.53
2018-11-28T10:35:43.726Z,61.75
2018-11-28T10:38:13.670Z,62.72
2018-11-28T10:40:43.583Z,61.99
2018-11-28T10:43:13.582Z,61.04
2018-11-28T10:45:44.276Z,62.35
2018-11-28T10:48:15.275Z,62.02
2018-11-28T10:50:45.152Z,61.73
2018-11-28T10:53:15.159Z,61.73
2018-11-28T10:55:45.960Z,61.73
2018-11-28T10:58:15.894Z,61.81
2018-11-28T11:01:02.984Z,63.44
2018-11-28T11:03:50.983Z,61.70
2018-11-28T11:06:38.349Z,60.87
2018-11-28T11:09:27.203Z,60.12
2018-11-28T11:12:27.398Z,61.50
2018-11-28T11:14:58.228Z,60.92
2018-11-28T11:17:28.110Z,61.57
2018-11-28T11:19:58.080Z,61.37
2018-11-28T11:22:28.152Z,60.50
2018-11-28T11:24:58.045Z,59.87
2018-11-28T11:27:28.433Z,60.18
2018-11-28T11:29:58.460Z,60.35
2018-11-28T11:32:29.157Z,60.30
2018-11-28T11:34:59.106Z,61.80
2018-11-28T11:37:29.144Z,61.51
2018-11-28T11:39:59.206Z,60.67
2018-11-28T11:42:29.411Z,59.53
2018-11-28T11:44:59.323Z,59.58
2018-11-28T11:47:29.266Z,59.63
2018-11-28T11:49:59.207Z,59.42
2018-11-28T11:52:29.317Z,59.41
2018-11-28T11:55:02.584Z,59.82
2018-11-28T11:57:35.555Z,60.13
2018-11-28T12:00:07.792Z,60.10
2018-11-28T12:02:38.493Z,59.15
2018-11-28T12:05:10.265Z,59.23
2018-11-28T12:07:40.323Z,60.06
2018-11-28T12:10:14.429Z,64.33
2018-11-28T12:12:44.427Z,59.56
2018-11-28T12:15:18.428Z,59.52
2018-11-28T12:17:49.587Z,58.51
2018-11-28T12:20:27.316Z,58.44
2018-11-28T12:22:58.113Z,58.69
2018-11-28T12:25:28.942Z,59.50
2018-11-28T12:27:58.969Z,58.76
2018-11-28T12:30:29.035Z,59.35
2018-11-28T12:32:59.885Z,58.96
2018-11-28T12:35:30.607Z,59.19
2018-11-28T12:38:03.532Z,59.19
2018-11-28T12:40:34.695Z,58.99
2018-11-28T12:43:05.541Z,59.73
2018-11-28T12:45:35.639Z,59.72
2018-11-28T12:48:05.612Z,59.72
2018-11-28T12:50:35.651Z,58.89
2018-11-28T12:53:05.627Z,59.13
2018-11-28T12:55:37.055Z,58.97
2018-11-28T12:58:11.397Z,58.54
2018-11-28T13:00:41.416Z,58.75
2018-11-28T13:03:12.891Z,58.86
2018-11-28T13:05:42.929Z,58.98
2018-11-28T13:08:12.817Z,59.05
2018-11-28T13:10:43.487Z,59.44
2018-11-28T13:13:13.836Z,58.87
2018-11-28T13:15:43.731Z,59.35
2018-11-28T13:18:13.835Z,59.12
2018-11-28T13:20:44.412Z,59.18
2018-11-28T13:23:18.237Z,59.06
2018-11-28T13:25:48.136Z,58.25
2018-11-28T13:28:18.134Z,59.13
2018-11-28T13:30:48.223Z,59.10
2018-11-28T13:33:18.274Z,58.92
2018-11-28T13:35:48.331Z,58.98
2018-11-28T13:38:18.366Z,58.91
2018-11-28T13:40:48.379Z,58.76
2018-11-28T13:43:18.324Z,58.03
2018-11-28T13:45:49.469Z,58.81
2018-11-28T13:48:19.562Z,58.74
2018-11-28T13:50:49.699Z,59.07
2018-11-28T13:53:20.947Z,59.09
2018-11-28T13:58:30.019Z,59.04
2018-11-28T14:00:59.953Z,59.22
2018-11-28T14:03:30.720Z,58.78
2018-11-28T14:06:00.708Z,58.87
2018-11-28T14:08:30.826Z,59.17
2018-11-28T14:11:00.979Z,59.08
2018-11-28T14:13:30.950Z,59.33
2018-11-28T14:16:01.682Z,59.32
2018-11-28T14:18:31.732Z,58.75
2018-11-28T14:21:01.588Z,59.14
2018-11-28T14:23:31.656Z,58.83
2018-11-28T14:26:01.609Z,60.08
2018-11-28T14:28:31.676Z,59.72
2018-11-28T14:31:01.842Z,59.84
2018-11-28T14:33:31.830Z,59.84
2018-11-28T14:36:01.970Z,60.30
2018-11-28T14:38:31.965Z,59.87
2018-11-28T14:41:02.005Z,60.17
2018-11-28T14:43:31.980Z,60.08
2018-11-28T14:46:02.695Z,59.99
2018-11-28T14:48:33.436Z,59.79
2018-11-28T14:51:04.215Z,60.13
2018-11-28T14:53:34.236Z,59.78
2018-11-28T14:56:04.359Z,59.61
2018-11-28T14:58:34.477Z,59.83
2018-11-28T15:01:05.340Z,59.83
2018-11-28T15:03:35.354Z,59.56
2018-11-28T15:06:22.626Z,59.25
2018-11-28T15:08:53.541Z,59.70
2018-11-28T15:11:23.646Z,66.14
2018-11-28T15:13:53.542Z,60.16
2018-11-28T15:16:23.456Z,60.18
2018-11-28T15:18:53.712Z,60.09
2018-11-28T15:21:23.617Z,60.25
2018-11-28T15:23:54.381Z,60.40
2018-11-28T15:26:24.477Z,60.39
2018-11-28T15:28:54.396Z,60.45
2018-11-28T15:31:24.347Z,61.07
2018-11-28T15:33:54.429Z,61.19
2018-11-28T15:36:24.451Z,61.47
2018-11-28T15:38:54.471Z,61.41
2018-11-28T15:41:24.417Z,62.79
2018-11-28T15:43:54.471Z,63.34
2018-11-28T15:46:24.399Z,63.67
2018-11-28T15:48:54.256Z,64.92
2018-11-28T15:51:24.124Z,65.06
2018-11-28T15:53:54.033Z,64.70
2018-11-28T15:56:23.957Z,64.90
2018-11-28T15:58:54.760Z,65.29
2018-11-28T16:01:24.665Z,65.76
2018-11-28T16:03:54.580Z,65.73
2018-11-28T16:06:24.502Z,66.26
2018-11-28T16:08:54.381Z,66.19
2018-11-28T16:11:25.262Z,66.80
2018-11-28T16:13:55.179Z,67.75
2018-11-28T16:16:26.571Z,67.99
2018-11-28T16:18:57.903Z,68.49
2018-11-28T16:21:27.396Z,68.53
2018-11-28T16:23:57.300Z,68.34
2018-11-28T16:26:27.369Z,69.36
2018-11-28T16:29:04.190Z,67.92
2018-11-28T16:31:34.171Z,68.62
2018-11-28T16:34:04.200Z,67.66
2018-11-28T16:36:34.274Z,68.33
2018-11-28T16:39:05.481Z,68.30
2018-11-28T16:41:35.412Z,68.04
2018-11-28T16:44:05.385Z,68.87
2018-11-28T16:46:35.434Z,69.10
2018-11-28T16:49:05.353Z,68.94
2018-11-28T16:51:35.367Z,69.48
2018-11-28T16:54:06.105Z,69.39
2018-11-28T16:56:36.844Z,69.55
2018-11-28T16:59:07.033Z,70.10
2018-11-28T17:01:36.989Z,69.61
2018-11-28T17:04:07.250Z,70.31
2018-11-28T17:06:37.280Z,69.96
2018-11-28T17:09:11.020Z,70.62
2018-11-28T17:11:41.089Z,70.69
2018-11-28T17:14:11.019Z,70.43
2018-11-28T17:16:41.011Z,70.82
2018-11-28T17:19:11.000Z,70.66
2018-11-28T17:21:40.941Z,70.38
2018-11-28T17:24:10.825Z,70.88
2018-11-28T17:26:40.791Z,71.44
2018-11-28T17:29:11.499Z,71.57
2018-11-28T17:31:41.397Z,70.96
2018-11-28T17:34:11.351Z,72.45
2018-11-28T17:36:41.350Z,73.50
2018-11-28T17:39:14.799Z,73.43
2018-11-28T17:41:44.720Z,73.60
2018-11-28T17:44:14.642Z,73.02
2018-11-28T17:46:44.637Z,73.23
2018-11-28T17:49:14.806Z,73.29
2018-11-28T17:51:44.848Z,73.10
2018-11-28T17:54:15.759Z,73.48
2018-11-28T17:56:48.357Z,73.36
2018-11-28T17:59:18.393Z,74.16
2018-11-28T18:01:48.448Z,73.66
2018-11-28T18:04:18.495Z,73.66
2018-11-28T18:06:48.430Z,72.39
2018-11-28T18:09:18.349Z,72.55
2018-11-28T18:11:48.310Z,72.44
2018-11-28T18:14:18.293Z,72.16
2018-11-28T18:16:48.398Z,72.21
2018-11-28T18:19:18.334Z,72.38
2018-11-28T18:21:48.319Z,72.34
2018-11-28T18:24:18.366Z,72.31
2018-11-28T18:26:50.969Z,72.92
2018-11-28T18:29:21.644Z,73.12
2018-11-28T18:31:51.576Z,72.71
2018-11-28T18:34:21.571Z,72.72
2018-11-28T18:36:51.474Z,72.45
2018-11-28T18:39:21.485Z,73.92
2018-11-28T18:41:51.442Z,71.90
2018-11-28T18:44:21.386Z,71.83
2018-11-28T18:46:51.273Z,71.90
2018-11-28T18:49:22.084Z,72.09
2018-11-28T18:51:51.999Z,72.21
2018-11-28T18:54:21.945Z,71.87
2018-11-28T18:56:51.825Z,72.15
2018-11-28T18:59:24.871Z,72.10
2018-11-28T19:01:55.731Z,72.04
2018-11-28T19:04:25.983Z,71.31
2018-11-28T19:06:55.935Z,71.66
2018-11-28T19:09:43.403Z,72.58
2018-11-28T19:12:13.582Z,72.19
2018-11-28T19:14:43.742Z,74.46
2018-11-28T19:17:13.862Z,71.83
2018-11-28T19:19:43.927Z,71.68
2018-11-28T19:22:14.013Z,71.54
2018-11-28T19:24:44.167Z,71.25
2018-11-28T19:27:14.338Z,71.42
2018-11-28T19:29:44.285Z,71.90
2018-11-28T19:32:14.431Z,71.80
2018-11-28T19:34:45.352Z,71.42
2018-11-28T19:37:15.330Z,71.41
2018-11-28T19:39:45.309Z,71.17
2018-11-28T19:42:15.532Z,71.38
2018-11-28T19:44:45.459Z,70.91
2018-11-28T19:47:15.479Z,70.90
2018-11-28T19:49:45.365Z,71.96
2018-11-28T19:52:15.417Z,70.42
2018-11-28T19:54:46.224Z,70.29
2018-11-28T19:57:16.212Z,70.29
2018-11-28T19:59:46.166Z,70.11
2018-11-28T20:02:16.190Z,70.50
2018-11-28T20:04:46.218Z,70.39
2018-11-28T20:07:16.180Z,70.42
2018-11-28T20:09:47.059Z,70.21
2018-11-28T20:12:17.034Z,69.69
2018-11-28T20:14:47.141Z,70.60
2018-11-28T20:17:17.042Z,70.29
2018-11-28T20:19:47.218Z,70.02
2018-11-28T20:22:17.270Z,70.02
2018-11-28T20:24:47.224Z,71.81
2018-11-28T20:27:17.255Z,70.61
2018-11-28T20:29:50.023Z,69.93
2018-11-28T20:32:20.802Z,69.60
2018-11-28T20:34:50.807Z,69.16
2018-11-28T20:37:20.773Z,69.82
2018-11-28T20:39:50.879Z,70.22
2018-11-28T20:42:21.375Z,70.09
2018-11-28T20:44:52.148Z,70.01
2018-11-28T20:47:22.223Z,70.03
2018-11-28T20:49:52.098Z,70.08
2018-11-28T20:52:22.078Z,69.92
2018-11-28T20:54:52.128Z,70.15
2018-11-28T20:57:22.568Z,70.22
2018-11-28T20:59:52.553Z,71.24
2018-11-28T21:02:22.489Z,70.19
2018-11-28T21:04:52.415Z,69.18
2018-11-28T21:07:22.326Z,69.21
2018-11-28T21:09:55.997Z,69.00
2018-11-28T21:12:26.030Z,69.29
2018-11-28T21:14:55.950Z,69.23
2018-11-28T21:17:25.874Z,69.60
2018-11-28T21:19:55.802Z,69.19
2018-11-28T21:22:25.810Z,68.99
2018-11-28T21:24:55.748Z,69.16
2018-11-28T21:27:25.723Z,69.26
2018-11-28T21:29:55.639Z,69.15
2018-11-28T21:32:25.654Z,69.16
2018-11-28T21:34:55.560Z,70.79
2018-11-28T21:37:25.512Z,70.41
2018-11-28T21:39:59.074Z,68.69
2018-11-28T21:42:29.222Z,69.08
2018-11-28T21:44:59.169Z,69.06
2018-11-28T21:47:29.174Z,69.50
2018-11-28T21:49:59.254Z,69.31
2018-11-28T21:52:29.294Z,69.31
2018-11-28T21:54:59.462Z,69.21
2018-11-28T21:57:29.582Z,69.25
2018-11-28T22:00:00.262Z,69.51
2018-11-28T22:02:30.220Z,69.17
2018-11-28T22:05:00.203Z,69.10
2018-11-28T22:07:30.173Z,69.32
2018-11-28T22:10:00.108Z,69.69
2018-11-28T22:12:30.179Z,70.82
2018-11-28T22:15:00.192Z,68.95
2018-11-28T22:17:30.383Z,68.76
2018-11-28T22:20:00.355Z,68.73
2018-11-28T22:22:30.350Z,68.79
2018-11-28T22:25:00.286Z,68.98
2018-11-28T22:27:30.372Z,68.88
2018-11-28T22:30:00.299Z,69.07
2018-11-28T22:32:30.271Z,68.96
2018-11-28T22:35:00.213Z,69.15
2018-11-28T22:37:30.162Z,69.29
2018-11-28T22:40:00.184Z,69.41
2018-11-28T22:42:30.360Z,69.22
2018-11-28T22:45:00.389Z,68.94
2018-11-28T22:47:31.872Z,68.62
2018-11-28T22:50:09.126Z,68.82
2018-11-28T22:52:39.156Z,69.01
2018-11-28T22:55:10.844Z,68.75
2018-11-28T22:57:40.814Z,68.43
2018-11-28T23:00:13.888Z,68.52
2018-11-28T23:03:00.254Z,68.80
2018-11-28T23:05:40.337Z,68.52
2018-11-28T23:08:11.372Z,68.39
2018-11-28T23:10:41.596Z,68.84
2018-11-28T23:13:15.522Z,68.76
2018-11-28T23:15:45.576Z,68.89
2018-11-28T23:18:15.539Z,68.71
2018-11-28T23:20:45.520Z,68.94
2018-11-28T23:23:15.466Z,69.92
2018-11-28T23:25:45.537Z,69.27
2018-11-28T23:28:18.529Z,68.50
2018-11-28T23:30:48.497Z,68.51
2018-11-28T23:33:18.448Z,68.46
2018-11-28T23:35:48.326Z,68.58
2018-11-28T23:38:18.221Z,68.89
2018-11-28T23:40:48.124Z,68.89
2018-11-28T23:43:18.183Z,68.85
2018-11-28T23:45:48.153Z,68.71
2018-11-28T23:48:18.123Z,68.70
2018-11-28T23:50:48.528Z,68.84
2018-11-28T23:53:18.542Z,68.77
2018-11-28T23:55:48.485Z,68.70
2018-11-28T23:58:18.441Z,68.62
